sensor_id;sensor_type;location;lat;lon;timestamp;P1;durP1;ratioP1;P2;durP2;ratioP2
82244;SDS011;71849;50.096;14.458;2023-08-17T00:01:49;11.43;;;7.03;;
82244;SDS011;71849;50.096;14.458;2023-08-17T00:04:14;11.27;;;7.25;;
82244;SDS011;71849;50.096;14.458;2023-08-17T00:06:40;11.35;;;7.50;;
82244;SDS011;71849;50.096;14.458;2023-08-17T00:09:06;9.88;;;6.55;;
82244;SDS011;71849;50.096;14.458;2023-08-17T00:11:32;10.77;;;7.13;;
82244;SDS011;71849;50.096;14.458;2023-08-17T00:13:58;11.68;;;6.70;;
82244;SDS011;71849;50.096;14.458;2023-08-17T00:16:23;10.68;;;7.28;;
82244;SDS011;71849;50.096;14.458;2023-08-17T00:18:49;11.65;;;7.00;;
82244;SDS011;71849;50.096;14.458;2023-08-17T00:21:14;11.63;;;7.63;;
82244;SDS011;71849;50.096;14.458;2023-08-17T00:23:40;10.48;;;7.32;;
82244;SDS011;71849;50.096;14.458;2023-08-17T00:26:05;11.30;;;7.90;;
82244;SDS011;71849;50.096;14.458;2023-08-17T00:28:31;14.00;;;7.28;;
82244;SDS011;71849;50.096;14.458;2023-08-17T00:30:56;11.25;;;6.80;;
82244;SDS011;71849;50.096;14.458;2023-08-17T00:33:22;9.82;;;6.82;;
82244;SDS011;71849;50.096;14.458;2023-08-17T00:35:47;11.02;;;7.70;;
82244;SDS011;71849;50.096;14.458;2023-08-17T00:38:13;11.45;;;7.05;;
82244;SDS011;71849;50.096;14.458;2023-08-17T00:40:38;10.80;;;7.78;;
82244;SDS011;71849;50.096;14.458;2023-08-17T00:43:04;13.50;;;8.05;;
82244;SDS011;71849;50.096;14.458;2023-08-17T00:45:30;12.07;;;7.35;;
82244;SDS011;71849;50.096;14.458;2023-08-17T00:47:56;10.35;;;6.95;;
82244;SDS011;71849;50.096;14.458;2023-08-17T00:50:26;11.48;;;7.47;;
82244;SDS011;71849;50.096;14.458;2023-08-17T00:52:53;12.77;;;7.00;;
82244;SDS011;71849;50.096;14.458;2023-08-17T00:55:20;12.50;;;7.30;;
82244;SDS011;71849;50.096;14.458;2023-08-17T00:57:46;10.85;;;7.32;;
82244;SDS011;71849;50.096;14.458;2023-08-17T01:00:12;11.93;;;7.97;;
82244;SDS011;71849;50.096;14.458;2023-08-17T01:02:39;11.25;;;8.13;;
82244;SDS011;71849;50.096;14.458;2023-08-17T01:05:08;11.48;;;7.60;;
82244;SDS011;71849;50.096;14.458;2023-08-17T01:07:34;10.88;;;7.70;;
82244;SDS011;71849;50.096;14.458;2023-08-17T01:09:59;11.52;;;7.68;;
82244;SDS011;71849;50.096;14.458;2023-08-17T01:12:30;11.90;;;7.82;;
82244;SDS011;71849;50.096;14.458;2023-08-17T01:17:47;13.35;;;7.88;;
82244;SDS011;71849;50.096;14.458;2023-08-17T01:20:17;11.48;;;7.40;;
82244;SDS011;71849;50.096;14.458;2023-08-17T01:22:45;12.82;;;7.88;;
82244;SDS011;71849;50.096;14.458;2023-08-17T01:25:11;12.27;;;7.78;;
82244;SDS011;71849;50.096;14.458;2023-08-17T01:27:39;13.98;;;8.70;;
82244;SDS011;71849;50.096;14.458;2023-08-17T01:30:07;12.70;;;8.43;;
82244;SDS011;71849;50.096;14.458;2023-08-17T01:32:54;13.98;;;8.38;;
82244;SDS011;71849;50.096;14.458;2023-08-17T01:38:33;14.77;;;8.48;;
82244;SDS011;71849;50.096;14.458;2023-08-17T01:41:00;13.38;;;9.40;;
82244;SDS011;71849;50.096;14.458;2023-08-17T01:43:27;13.63;;;9.25;;
82244;SDS011;71849;50.096;14.458;2023-08-17T01:45:53;13.35;;;9.15;;
82244;SDS011;71849;50.096;14.458;2023-08-17T01:48:19;15.02;;;9.77;;
82244;SDS011;71849;50.096;14.458;2023-08-17T01:50:45;13.10;;;9.02;;
82244;SDS011;71849;50.096;14.458;2023-08-17T01:53:10;13.25;;;9.20;;
82244;SDS011;71849;50.096;14.458;2023-08-17T01:55:36;13.32;;;9.15;;
82244;SDS011;71849;50.096;14.458;2023-08-17T01:58:02;16.38;;;9.80;;
82244;SDS011;71849;50.096;14.458;2023-08-17T02:00:28;14.93;;;9.55;;
82244;SDS011;71849;50.096;14.458;2023-08-17T02:02:53;14.15;;;9.65;;
82244;SDS011;71849;50.096;14.458;2023-08-17T02:05:18;15.65;;;9.90;;
82244;SDS011;71849;50.096;14.458;2023-08-17T02:07:44;15.40;;;10.02;;
82244;SDS011;71849;50.096;14.458;2023-08-17T02:10:09;13.57;;;9.65;;
82244;SDS011;71849;50.096;14.458;2023-08-17T02:12:35;15.02;;;9.48;;
82244;SDS011;71849;50.096;14.458;2023-08-17T02:15:00;18.10;;;9.35;;
82244;SDS011;71849;50.096;14.458;2023-08-17T02:17:25;15.60;;;9.73;;
82244;SDS011;71849;50.096;14.458;2023-08-17T02:19:51;14.45;;;10.05;;
82244;SDS011;71849;50.096;14.458;2023-08-17T02:22:16;14.45;;;9.75;;
82244;SDS011;71849;50.096;14.458;2023-08-17T02:24:42;16.05;;;10.30;;
82244;SDS011;71849;50.096;14.458;2023-08-17T02:27:08;15.98;;;9.73;;
82244;SDS011;71849;50.096;14.458;2023-08-17T02:29:34;14.82;;;9.90;;
82244;SDS011;71849;50.096;14.458;2023-08-17T02:31:59;13.55;;;8.90;;
82244;SDS011;71849;50.096;14.458;2023-08-17T02:34:25;17.90;;;11.27;;
82244;SDS011;71849;50.096;14.458;2023-08-17T02:36:50;14.32;;;10.57;;
82244;SDS011;71849;50.096;14.458;2023-08-17T02:39:16;16.48;;;10.05;;
82244;SDS011;71849;50.096;14.458;2023-08-17T02:41:41;15.60;;;9.63;;
82244;SDS011;71849;50.096;14.458;2023-08-17T02:44:06;13.65;;;9.85;;
82244;SDS011;71849;50.096;14.458;2023-08-17T02:46:32;16.10;;;11.00;;
82244;SDS011;71849;50.096;14.458;2023-08-17T02:48:57;15.52;;;9.93;;
82244;SDS011;71849;50.096;14.458;2023-08-17T02:51:23;15.25;;;10.82;;
82244;SDS011;71849;50.096;14.458;2023-08-17T02:53:48;14.75;;;10.65;;
82244;SDS011;71849;50.096;14.458;2023-08-17T02:56:14;14.30;;;9.52;;
82244;SDS011;71849;50.096;14.458;2023-08-17T02:58:39;14.25;;;9.27;;
82244;SDS011;71849;50.096;14.458;2023-08-17T03:01:06;15.02;;;9.45;;
82244;SDS011;71849;50.096;14.458;2023-08-17T03:03:32;16.92;;;10.25;;
82244;SDS011;71849;50.096;14.458;2023-08-17T03:05:57;15.98;;;10.85;;
82244;SDS011;71849;50.096;14.458;2023-08-17T03:08:23;15.63;;;9.52;;
82244;SDS011;71849;50.096;14.458;2023-08-17T03:10:48;13.43;;;9.48;;
82244;SDS011;71849;50.096;14.458;2023-08-17T03:13:13;16.88;;;10.68;;
82244;SDS011;71849;50.096;14.458;2023-08-17T03:15:39;16.17;;;10.80;;
82244;SDS011;71849;50.096;14.458;2023-08-17T03:18:05;14.60;;;9.45;;
82244;SDS011;71849;50.096;14.458;2023-08-17T03:20:31;14.73;;;9.80;;
82244;SDS011;71849;50.096;14.458;2023-08-17T03:22:56;15.82;;;10.95;;
82244;SDS011;71849;50.096;14.458;2023-08-17T03:25:22;14.48;;;9.65;;
82244;SDS011;71849;50.096;14.458;2023-08-17T03:27:47;15.45;;;9.10;;
82244;SDS011;71849;50.096;14.458;2023-08-17T03:30:13;13.80;;;8.88;;
82244;SDS011;71849;50.096;14.458;2023-08-17T03:32:38;15.93;;;9.60;;
82244;SDS011;71849;50.096;14.458;2023-08-17T03:35:03;14.80;;;9.18;;
82244;SDS011;71849;50.096;14.458;2023-08-17T03:37:29;12.77;;;8.68;;
82244;SDS011;71849;50.096;14.458;2023-08-17T03:39:55;13.00;;;9.50;;
82244;SDS011;71849;50.096;14.458;2023-08-17T03:42:20;13.43;;;9.10;;
82244;SDS011;71849;50.096;14.458;2023-08-17T03:44:45;18.15;;;9.90;;
82244;SDS011;71849;50.096;14.458;2023-08-17T03:47:11;13.55;;;8.40;;
82244;SDS011;71849;50.096;14.458;2023-08-17T03:49:36;14.25;;;9.13;;
82244;SDS011;71849;50.096;14.458;2023-08-17T03:52:02;18.15;;;8.43;;
82244;SDS011;71849;50.096;14.458;2023-08-17T03:54:27;11.88;;;7.72;;
82244;SDS011;71849;50.096;14.458;2023-08-17T03:56:53;13.57;;;8.15;;
82244;SDS011;71849;50.096;14.458;2023-08-17T03:59:18;14.20;;;9.00;;
82244;SDS011;71849;50.096;14.458;2023-08-17T04:01:43;14.15;;;8.85;;
82244;SDS011;71849;50.096;14.458;2023-08-17T04:04:09;13.48;;;8.73;;
82244;SDS011;71849;50.096;14.458;2023-08-17T04:06:35;14.02;;;8.57;;
82244;SDS011;71849;50.096;14.458;2023-08-17T04:09:01;14.25;;;9.23;;
82244;SDS011;71849;50.096;14.458;2023-08-17T04:11:26;14.60;;;9.90;;
82244;SDS011;71849;50.096;14.458;2023-08-17T04:13:51;10.88;;;7.78;;
82244;SDS011;71849;50.096;14.458;2023-08-17T04:16:17;14.30;;;8.93;;
82244;SDS011;71849;50.096;14.458;2023-08-17T04:18:42;12.40;;;8.60;;
82244;SDS011;71849;50.096;14.458;2023-08-17T04:21:08;14.88;;;8.27;;
82244;SDS011;71849;50.096;14.458;2023-08-17T04:23:33;14.27;;;9.43;;
82244;SDS011;71849;50.096;14.458;2023-08-17T04:25:59;14.73;;;9.10;;
82244;SDS011;71849;50.096;14.458;2023-08-17T04:28:30;12.98;;;8.52;;
82244;SDS011;71849;50.096;14.458;2023-08-17T04:30:56;14.45;;;9.13;;
82244;SDS011;71849;50.096;14.458;2023-08-17T04:33:22;16.30;;;9.02;;
82244;SDS011;71849;50.096;14.458;2023-08-17T04:35:47;15.45;;;8.80;;
82244;SDS011;71849;50.096;14.458;2023-08-17T04:38:13;14.57;;;8.98;;
82244;SDS011;71849;50.096;14.458;2023-08-17T04:40:38;15.60;;;9.93;;
82244;SDS011;71849;50.096;14.458;2023-08-17T04:43:04;13.20;;;9.38;;
82244;SDS011;71849;50.096;14.458;2023-08-17T04:45:29;16.13;;;10.50;;
82244;SDS011;71849;50.096;14.458;2023-08-17T04:47:58;16.70;;;10.60;;
82244;SDS011;71849;50.096;14.458;2023-08-17T04:50:23;12.38;;;8.68;;
82244;SDS011;71849;50.096;14.458;2023-08-17T04:52:49;16.05;;;9.35;;
82244;SDS011;71849;50.096;14.458;2023-08-17T04:55:14;16.23;;;9.88;;
82244;SDS011;71849;50.096;14.458;2023-08-17T04:57:39;17.90;;;10.00;;
82244;SDS011;71849;50.096;14.458;2023-08-17T05:00:05;13.85;;;10.43;;
82244;SDS011;71849;50.096;14.458;2023-08-17T05:02:34;15.95;;;10.45;;
82244;SDS011;71849;50.096;14.458;2023-08-17T05:05:02;16.95;;;10.82;;
82244;SDS011;71849;50.096;14.458;2023-08-17T05:07:34;14.63;;;10.10;;
82244;SDS011;71849;50.096;14.458;2023-08-17T05:10:10;17.73;;;9.88;;
82244;SDS011;71849;50.096;14.458;2023-08-17T05:15:27;16.67;;;9.90;;
82244;SDS011;71849;50.096;14.458;2023-08-17T05:17:59;16.88;;;10.52;;
82244;SDS011;71849;50.096;14.458;2023-08-17T05:25:33;16.10;;;10.60;;
82244;SDS011;71849;50.096;14.458;2023-08-17T05:28:04;17.58;;;11.23;;
82244;SDS011;71849;50.096;14.458;2023-08-17T05:35:41;14.82;;;10.18;;
82244;SDS011;71849;50.096;14.458;2023-08-17T05:38:07;17.00;;;11.05;;
82244;SDS011;71849;50.096;14.458;2023-08-17T05:40:34;16.55;;;11.52;;
82244;SDS011;71849;50.096;14.458;2023-08-17T05:43:04;19.58;;;11.27;;
82244;SDS011;71849;50.096;14.458;2023-08-17T05:45:29;16.92;;;11.23;;
82244;SDS011;71849;50.096;14.458;2023-08-17T05:48:01;20.10;;;11.75;;
82244;SDS011;71849;50.096;14.458;2023-08-17T05:50:30;16.75;;;10.65;;
82244;SDS011;71849;50.096;14.458;2023-08-17T05:53:01;17.38;;;11.30;;
82244;SDS011;71849;50.096;14.458;2023-08-17T05:55:45;18.27;;;10.93;;
82244;SDS011;71849;50.096;14.458;2023-08-17T05:58:14;16.02;;;10.68;;
82244;SDS011;71849;50.096;14.458;2023-08-17T06:00:39;17.23;;;10.32;;
82244;SDS011;71849;50.096;14.458;2023-08-17T06:03:18;15.90;;;9.85;;
82244;SDS011;71849;50.096;14.458;2023-08-17T06:08:11;17.85;;;11.85;;
82244;SDS011;71849;50.096;14.458;2023-08-17T06:10:36;18.58;;;11.95;;
82244;SDS011;71849;50.096;14.458;2023-08-17T06:13:05;17.75;;;11.70;;
82244;SDS011;71849;50.096;14.458;2023-08-17T06:15:30;20.30;;;11.63;;
82244;SDS011;71849;50.096;14.458;2023-08-17T06:17:59;21.50;;;12.10;;
82244;SDS011;71849;50.096;14.458;2023-08-17T06:20:24;22.52;;;12.05;;
82244;SDS011;71849;50.096;14.458;2023-08-17T06:22:59;16.70;;;11.98;;
82244;SDS011;71849;50.096;14.458;2023-08-17T06:25:25;21.20;;;12.27;;
82244;SDS011;71849;50.096;14.458;2023-08-17T06:27:51;18.98;;;12.68;;
82244;SDS011;71849;50.096;14.458;2023-08-17T06:30:23;17.02;;;12.10;;
82244;SDS011;71849;50.096;14.458;2023-08-17T06:32:54;17.80;;;11.38;;
82244;SDS011;71849;50.096;14.458;2023-08-17T06:35:20;19.48;;;12.07;;
82244;SDS011;71849;50.096;14.458;2023-08-17T06:37:45;19.95;;;12.43;;
82244;SDS011;71849;50.096;14.458;2023-08-17T06:40:10;21.10;;;13.32;;
82244;SDS011;71849;50.096;14.458;2023-08-17T06:42:36;17.08;;;12.23;;
82244;SDS011;71849;50.096;14.458;2023-08-17T06:47:30;20.65;;;12.55;;
82244;SDS011;71849;50.096;14.458;2023-08-17T06:50:02;19.80;;;12.50;;
82244;SDS011;71849;50.096;14.458;2023-08-17T06:52:29;18.40;;;12.40;;
82244;SDS011;71849;50.096;14.458;2023-08-17T06:54:58;17.38;;;12.07;;
82244;SDS011;71849;50.096;14.458;2023-08-17T06:57:23;17.00;;;11.80;;
82244;SDS011;71849;50.096;14.458;2023-08-17T06:59:49;19.60;;;11.35;;
82244;SDS011;71849;50.096;14.458;2023-08-17T07:02:14;18.15;;;11.85;;
82244;SDS011;71849;50.096;14.458;2023-08-17T07:04:40;17.02;;;11.70;;
82244;SDS011;71849;50.096;14.458;2023-08-17T07:07:05;16.48;;;12.48;;
82244;SDS011;71849;50.096;14.458;2023-08-17T07:09:30;18.50;;;12.15;;
82244;SDS011;71849;50.096;14.458;2023-08-17T07:11:59;18.48;;;13.02;;
82244;SDS011;71849;50.096;14.458;2023-08-17T07:14:24;18.27;;;12.82;;
82244;SDS011;71849;50.096;14.458;2023-08-17T07:16:53;18.90;;;12.75;;
82244;SDS011;71849;50.096;14.458;2023-08-17T07:22:29;19.10;;;11.43;;
82244;SDS011;71849;50.096;14.458;2023-08-17T07:24:58;18.55;;;11.73;;
82244;SDS011;71849;50.096;14.458;2023-08-17T07:27:27;18.48;;;11.32;;
82244;SDS011;71849;50.096;14.458;2023-08-17T07:29:55;15.55;;;10.63;;
82244;SDS011;71849;50.096;14.458;2023-08-17T07:32:26;14.48;;;10.07;;
82244;SDS011;71849;50.096;14.458;2023-08-17T07:34:52;16.25;;;9.35;;
82244;SDS011;71849;50.096;14.458;2023-08-17T07:37:17;20.80;;;15.48;;
82244;SDS011;71849;50.096;14.458;2023-08-17T07:39:43;17.67;;;11.25;;
82244;SDS011;71849;50.096;14.458;2023-08-17T07:42:08;16.80;;;9.95;;
82244;SDS011;71849;50.096;14.458;2023-08-17T07:44:34;14.13;;;9.23;;
82244;SDS011;71849;50.096;14.458;2023-08-17T07:47:00;13.48;;;8.43;;
82244;SDS011;71849;50.096;14.458;2023-08-17T07:49:27;11.73;;;8.13;;
82244;SDS011;71849;50.096;14.458;2023-08-17T07:51:53;14.98;;;10.25;;
82244;SDS011;71849;50.096;14.458;2023-08-17T07:54:19;17.15;;;11.00;;
82244;SDS011;71849;50.096;14.458;2023-08-17T07:56:44;13.20;;;10.10;;
82244;SDS011;71849;50.096;14.458;2023-08-17T07:59:09;15.60;;;9.35;;
82244;SDS011;71849;50.096;14.458;2023-08-17T08:01:35;14.48;;;9.70;;
82244;SDS011;71849;50.096;14.458;2023-08-17T08:04:01;12.00;;;8.48;;
82244;SDS011;71849;50.096;14.458;2023-08-17T08:06:27;14.45;;;8.68;;
82244;SDS011;71849;50.096;14.458;2023-08-17T08:08:52;14.40;;;8.07;;
82244;SDS011;71849;50.096;14.458;2023-08-17T08:11:18;12.07;;;8.40;;
82244;SDS011;71849;50.096;14.458;2023-08-17T08:13:43;13.85;;;9.60;;
82244;SDS011;71849;50.096;14.458;2023-08-17T08:16:08;14.20;;;10.02;;
82244;SDS011;71849;50.096;14.458;2023-08-17T08:18:34;18.55;;;10.27;;
82244;SDS011;71849;50.096;14.458;2023-08-17T08:20:59;15.35;;;8.82;;
82244;SDS011;71849;50.096;14.458;2023-08-17T08:23:25;15.43;;;10.43;;
82244;SDS011;71849;50.096;14.458;2023-08-17T08:25:51;12.93;;;8.52;;
82244;SDS011;71849;50.096;14.458;2023-08-17T08:28:16;14.55;;;9.63;;
82244;SDS011;71849;50.096;14.458;2023-08-17T08:30:42;17.70;;;10.60;;
82244;SDS011;71849;50.096;14.458;2023-08-17T08:33:07;16.98;;;11.23;;
82244;SDS011;71849;50.096;14.458;2023-08-17T08:35:33;16.77;;;11.05;;
82244;SDS011;71849;50.096;14.458;2023-08-17T08:37:58;13.02;;;10.35;;
82244;SDS011;71849;50.096;14.458;2023-08-17T08:40:26;17.13;;;10.80;;
82244;SDS011;71849;50.096;14.458;2023-08-17T08:42:53;17.02;;;10.30;;
82244;SDS011;71849;50.096;14.458;2023-08-17T08:45:18;17.55;;;11.20;;
82244;SDS011;71849;50.096;14.458;2023-08-17T08:47:46;14.73;;;10.20;;
82244;SDS011;71849;50.096;14.458;2023-08-17T08:50:12;18.52;;;11.98;;
82244;SDS011;71849;50.096;14.458;2023-08-17T08:52:44;22.75;;;11.70;;
82244;SDS011;71849;50.096;14.458;2023-08-17T08:55:29;13.73;;;10.32;;
82244;SDS011;71849;50.096;14.458;2023-08-17T08:57:57;15.25;;;10.43;;
82244;SDS011;71849;50.096;14.458;2023-08-17T09:00:24;15.15;;;10.77;;
82244;SDS011;71849;50.096;14.458;2023-08-17T09:02:50;15.52;;;10.23;;
82244;SDS011;71849;50.096;14.458;2023-08-17T09:05:17;17.10;;;11.32;;
82244;SDS011;71849;50.096;14.458;2023-08-17T09:07:42;18.30;;;11.07;;
82244;SDS011;71849;50.096;14.458;2023-08-17T09:10:11;13.32;;;10.07;;
82244;SDS011;71849;50.096;14.458;2023-08-17T09:12:37;14.32;;;9.82;;
82244;SDS011;71849;50.096;14.458;2023-08-17T09:15:02;15.07;;;10.05;;
82244;SDS011;71849;50.096;14.458;2023-08-17T09:17:28;14.80;;;9.40;;
82244;SDS011;71849;50.096;14.458;2023-08-17T09:19:54;13.93;;;10.27;;
82244;SDS011;71849;50.096;14.458;2023-08-17T09:22:38;13.48;;;10.60;;
82244;SDS011;71849;50.096;14.458;2023-08-17T09:25:08;16.02;;;10.23;;
82244;SDS011;71849;50.096;14.458;2023-08-17T09:27:46;12.52;;;9.45;;
82244;SDS011;71849;50.096;14.458;2023-08-17T09:30:12;14.05;;;9.48;;
82244;SDS011;71849;50.096;14.458;2023-08-17T09:32:38;15.50;;;10.32;;
82244;SDS011;71849;50.096;14.458;2023-08-17T09:35:04;15.07;;;10.30;;
82244;SDS011;71849;50.096;14.458;2023-08-17T09:37:30;16.30;;;9.70;;
82244;SDS011;71849;50.096;14.458;2023-08-17T09:39:57;16.58;;;10.00;;
82244;SDS011;71849;50.096;14.458;2023-08-17T09:42:23;16.27;;;10.88;;
82244;SDS011;71849;50.096;14.458;2023-08-17T09:44:50;16.02;;;9.63;;
82244;SDS011;71849;50.096;14.458;2023-08-17T09:47:19;15.20;;;9.50;;
82244;SDS011;71849;50.096;14.458;2023-08-17T09:49:53;13.50;;;9.90;;
82244;SDS011;71849;50.096;14.458;2023-08-17T09:52:19;16.10;;;10.05;;
82244;SDS011;71849;50.096;14.458;2023-08-17T09:54:46;14.60;;;9.90;;
82244;SDS011;71849;50.096;14.458;2023-08-17T09:57:12;13.32;;;10.05;;
82244;SDS011;71849;50.096;14.458;2023-08-17T09:59:39;16.40;;;10.38;;
82244;SDS011;71849;50.096;14.458;2023-08-17T10:02:07;15.85;;;10.07;;
82244;SDS011;71849;50.096;14.458;2023-08-17T10:04:42;13.48;;;10.30;;
82244;SDS011;71849;50.096;14.458;2023-08-17T10:07:12;16.05;;;10.15;;
82244;SDS011;71849;50.096;14.458;2023-08-17T10:09:42;14.85;;;10.30;;
82244;SDS011;71849;50.096;14.458;2023-08-17T10:12:37;14.95;;;10.40;;
82244;SDS011;71849;50.096;14.458;2023-08-17T10:15:11;15.50;;;10.82;;
82244;SDS011;71849;50.096;14.458;2023-08-17T10:17:43;15.65;;;11.07;;
82244;SDS011;71849;50.096;14.458;2023-08-17T10:20:17;14.95;;;10.82;;
82244;SDS011;71849;50.096;14.458;2023-08-17T10:22:48;12.93;;;10.38;;
82244;SDS011;71849;50.096;14.458;2023-08-17T10:32:35;13.13;;;9.90;;
82244;SDS011;71849;50.096;14.458;2023-08-17T10:35:22;15.88;;;10.13;;
82244;SDS011;71849;50.096;14.458;2023-08-17T10:41:29;14.02;;;9.85;;
82244;SDS011;71849;50.096;14.458;2023-08-17T10:51:03;12.25;;;9.75;;
82244;SDS011;71849;50.096;14.458;2023-08-17T10:57:55;13.38;;;9.07;;
82244;SDS011;71849;50.096;14.458;2023-08-17T11:00:23;13.68;;;10.07;;
82244;SDS011;71849;50.096;14.458;2023-08-17T11:02:55;11.73;;;9.93;;
82244;SDS011;71849;50.096;14.458;2023-08-17T11:05:51;13.02;;;9.32;;
82244;SDS011;71849;50.096;14.458;2023-08-17T11:08:39;12.43;;;9.18;;
82244;SDS011;71849;50.096;14.458;2023-08-17T11:11:22;15.52;;;10.05;;
82244;SDS011;71849;50.096;14.458;2023-08-17T11:13:52;13.60;;;9.82;;
82244;SDS011;71849;50.096;14.458;2023-08-17T11:16:20;15.60;;;9.60;;
82244;SDS011;71849;50.096;14.458;2023-08-17T11:18:46;16.85;;;9.60;;
82244;SDS011;71849;50.096;14.458;2023-08-17T11:21:12;12.45;;;9.27;;
82244;SDS011;71849;50.096;14.458;2023-08-17T11:23:41;12.45;;;8.57;;
82244;SDS011;71849;50.096;14.458;2023-08-17T11:26:07;15.27;;;9.48;;
82244;SDS011;71849;50.096;14.458;2023-08-17T11:28:33;14.52;;;10.25;;
82244;SDS011;71849;50.096;14.458;2023-08-17T11:31:04;14.45;;;9.32;;
82244;SDS011;71849;50.096;14.458;2023-08-17T11:33:31;11.93;;;8.68;;
82244;SDS011;71849;50.096;14.458;2023-08-17T11:35:57;13.48;;;8.60;;
82244;SDS011;71849;50.096;14.458;2023-08-17T11:38:29;13.55;;;8.70;;
82244;SDS011;71849;50.096;14.458;2023-08-17T11:40:59;14.07;;;8.65;;
82244;SDS011;71849;50.096;14.458;2023-08-17T11:43:26;12.85;;;8.82;;
82244;SDS011;71849;50.096;14.458;2023-08-17T11:45:52;11.60;;;8.95;;
82244;SDS011;71849;50.096;14.458;2023-08-17T11:48:19;13.45;;;9.52;;
82244;SDS011;71849;50.096;14.458;2023-08-17T11:50:48;15.35;;;9.55;;
82244;SDS011;71849;50.096;14.458;2023-08-17T11:53:14;11.10;;;8.80;;
82244;SDS011;71849;50.096;14.458;2023-08-17T11:55:43;13.05;;;8.68;;
82244;SDS011;71849;50.096;14.458;2023-08-17T11:58:14;11.45;;;8.23;;
82244;SDS011;71849;50.096;14.458;2023-08-17T12:00:49;12.48;;;8.68;;
82244;SDS011;71849;50.096;14.458;2023-08-17T12:06:07;12.02;;;8.45;;
82244;SDS011;71849;50.096;14.458;2023-08-17T12:08:37;10.98;;;8.57;;
82244;SDS011;71849;50.096;14.458;2023-08-17T12:11:06;12.45;;;8.50;;
82244;SDS011;71849;50.096;14.458;2023-08-17T12:13:35;15.52;;;9.82;;
82244;SDS011;71849;50.096;14.458;2023-08-17T12:16:03;12.63;;;8.52;;
82244;SDS011;71849;50.096;14.458;2023-08-17T12:18:32;12.65;;;8.60;;
82244;SDS011;71849;50.096;14.458;2023-08-17T12:20:57;12.13;;;9.52;;
82244;SDS011;71849;50.096;14.458;2023-08-17T12:23:23;11.05;;;8.40;;
82244;SDS011;71849;50.096;14.458;2023-08-17T12:25:52;13.23;;;9.13;;
82244;SDS011;71849;50.096;14.458;2023-08-17T12:28:25;12.20;;;8.77;;
82244;SDS011;71849;50.096;14.458;2023-08-17T12:30:58;11.35;;;8.25;;
82244;SDS011;71849;50.096;14.458;2023-08-17T12:33:36;10.00;;;8.13;;
82244;SDS011;71849;50.096;14.458;2023-08-17T12:36:11;11.60;;;8.05;;
82244;SDS011;71849;50.096;14.458;2023-08-17T12:38:36;9.77;;;7.95;;
82244;SDS011;71849;50.096;14.458;2023-08-17T12:41:05;9.85;;;8.10;;
82244;SDS011;71849;50.096;14.458;2023-08-17T12:43:31;10.57;;;8.10;;
82244;SDS011;71849;50.096;14.458;2023-08-17T12:45:56;10.68;;;7.90;;
82244;SDS011;71849;50.096;14.458;2023-08-17T13:02:18;9.52;;;6.07;;
82244;SDS011;71849;50.096;14.458;2023-08-17T13:06:30;8.18;;;5.40;;
82244;SDS011;71849;50.096;14.458;2023-08-17T13:13:16;6.93;;;4.95;;
82244;SDS011;71849;50.096;14.458;2023-08-17T13:23:32;9.30;;;5.97;;
82244;SDS011;71849;50.096;14.458;2023-08-17T13:48:37;11.82;;;7.22;;
82244;SDS011;71849;50.096;14.458;2023-08-17T13:52:10;11.27;;;5.43;;
82244;SDS011;71849;50.096;14.458;2023-08-17T13:54:35;10.27;;;5.00;;
82244;SDS011;71849;50.096;14.458;2023-08-17T13:57:01;13.07;;;5.97;;
82244;SDS011;71849;50.096;14.458;2023-08-17T13:59:26;13.73;;;5.15;;
82244;SDS011;71849;50.096;14.458;2023-08-17T14:01:52;13.05;;;5.55;;
82244;SDS011;71849;50.096;14.458;2023-08-17T14:04:17;8.35;;;4.50;;
82244;SDS011;71849;50.096;14.458;2023-08-17T14:06:43;11.05;;;5.40;;
82244;SDS011;71849;50.096;14.458;2023-08-17T14:09:09;9.10;;;4.93;;
82244;SDS011;71849;50.096;14.458;2023-08-17T14:11:34;10.55;;;4.85;;
82244;SDS011;71849;50.096;14.458;2023-08-17T14:13:59;10.48;;;4.82;;
82244;SDS011;71849;50.096;14.458;2023-08-17T14:16:25;11.82;;;5.07;;
82244;SDS011;71849;50.096;14.458;2023-08-17T14:18:50;10.55;;;5.00;;
82244;SDS011;71849;50.096;14.458;2023-08-17T14:21:16;9.20;;;4.97;;
82244;SDS011;71849;50.096;14.458;2023-08-17T14:23:41;9.30;;;4.97;;
82244;SDS011;71849;50.096;14.458;2023-08-17T14:26:07;10.15;;;4.30;;
82244;SDS011;71849;50.096;14.458;2023-08-17T14:28:32;10.07;;;4.25;;
82244;SDS011;71849;50.096;14.458;2023-08-17T14:30:58;9.20;;;4.97;;
82244;SDS011;71849;50.096;14.458;2023-08-17T14:33:23;9.48;;;4.88;;
82244;SDS011;71849;50.096;14.458;2023-08-17T14:35:49;8.10;;;4.68;;
82244;SDS011;71849;50.096;14.458;2023-08-17T14:38:15;6.72;;;4.18;;
82244;SDS011;71849;50.096;14.458;2023-08-17T14:40:42;6.60;;;4.20;;
82244;SDS011;71849;50.096;14.458;2023-08-17T14:43:09;7.78;;;4.40;;
82244;SDS011;71849;50.096;14.458;2023-08-17T14:45:37;8.32;;;4.72;;
82244;SDS011;71849;50.096;14.458;2023-08-17T14:48:06;9.55;;;5.03;;
82244;SDS011;71849;50.096;14.458;2023-08-17T14:50:32;8.00;;;4.20;;
82244;SDS011;71849;50.096;14.458;2023-08-17T14:52:59;8.27;;;4.78;;
82244;SDS011;71849;50.096;14.458;2023-08-17T14:55:27;9.05;;;4.53;;
82244;SDS011;71849;50.096;14.458;2023-08-17T14:57:53;7.53;;;4.70;;
82244;SDS011;71849;50.096;14.458;2023-08-17T15:00:19;7.82;;;4.65;;
82244;SDS011;71849;50.096;14.458;2023-08-17T15:02:51;8.48;;;4.68;;
82244;SDS011;71849;50.096;14.458;2023-08-17T15:05:21;8.23;;;4.70;;
82244;SDS011;71849;50.096;14.458;2023-08-17T15:07:46;9.50;;;4.50;;
82244;SDS011;71849;50.096;14.458;2023-08-17T15:10:12;7.78;;;4.63;;
82244;SDS011;71849;50.096;14.458;2023-08-17T15:12:37;7.70;;;5.32;;
82244;SDS011;71849;50.096;14.458;2023-08-17T15:15:03;7.25;;;5.05;;
82244;SDS011;71849;50.096;14.458;2023-08-17T15:17:33;7.57;;;5.10;;
82244;SDS011;71849;50.096;14.458;2023-08-17T15:50:04;10.95;;;7.50;;
82244;SDS011;71849;50.096;14.458;2023-08-17T15:52:31;10.95;;;7.90;;
82244;SDS011;71849;50.096;14.458;2023-08-17T15:55:07;11.18;;;7.80;;
82244;SDS011;71849;50.096;14.458;2023-08-17T15:57:58;12.10;;;6.85;;
82244;SDS011;71849;50.096;14.458;2023-08-17T16:00:31;9.98;;;6.25;;
82244;SDS011;71849;50.096;14.458;2023-08-17T16:02:56;8.80;;;6.97;;
82244;SDS011;71849;50.096;14.458;2023-08-17T16:05:22;12.55;;;7.47;;
82244;SDS011;71849;50.096;14.458;2023-08-17T16:07:50;11.25;;;7.05;;
82244;SDS011;71849;50.096;14.458;2023-08-17T16:10:16;8.48;;;6.43;;
82244;SDS011;71849;50.096;14.458;2023-08-17T16:12:41;8.30;;;6.72;;
82244;SDS011;71849;50.096;14.458;2023-08-17T16:15:07;8.30;;;6.18;;
82244;SDS011;71849;50.096;14.458;2023-08-17T16:17:33;9.95;;;6.88;;
82244;SDS011;71849;50.096;14.458;2023-08-17T16:19:58;10.13;;;6.93;;
82244;SDS011;71849;50.096;14.458;2023-08-17T16:22:23;8.52;;;6.80;;
82244;SDS011;71849;50.096;14.458;2023-08-17T16:24:49;10.00;;;6.45;;
82244;SDS011;71849;50.096;14.458;2023-08-17T16:27:14;8.95;;;5.90;;
82244;SDS011;71849;50.096;14.458;2023-08-17T16:29:41;10.95;;;6.03;;
82244;SDS011;71849;50.096;14.458;2023-08-17T16:32:07;9.85;;;5.28;;
82244;SDS011;71849;50.096;14.458;2023-08-17T16:34:32;8.63;;;6.05;;